sensor_id;sensor_type;location;lat;lon;timestamp;P1;durP1;ratioP1;P2;durP2;ratioP2
38248;SDS011;24045;51.138;17.126;2023-04-03T00:09:32;7.30;;;2.50;;
38248;SDS011;24045;51.138;17.126;2023-04-03T00:24:35;8.10;;;3.80;;
38248;SDS011;24045;51.138;17.126;2023-04-03T00:39:37;8.50;;;2.70;;
38248;SDS011;24045;51.138;17.126;2023-04-03T00:54:40;7.40;;;2.90;;
38248;SDS011;24045;51.138;17.126;2023-04-03T01:09:44;8.50;;;3.20;;
38248;SDS011;24045;51.138;17.126;2023-04-03T01:24:49;10.60;;;3.40;;
38248;SDS011;24045;51.138;17.126;2023-04-03T01:39:53;8.30;;;3.20;;
38248;SDS011;24045;51.138;17.126;2023-04-03T01:54:56;9.30;;;3.10;;
38248;SDS011;24045;51.138;17.126;2023-04-03T02:09:58;10.10;;;3.00;;
38248;SDS011;24045;51.138;17.126;2023-04-03T02:25:01;10.40;;;3.40;;
38248;SDS011;24045;51.138;17.126;2023-04-03T02:40:05;9.20;;;3.40;;
38248;SDS011;24045;51.138;17.126;2023-04-03T02:55:08;13.30;;;3.40;;
38248;SDS011;24045;51.138;17.126;2023-04-03T03:10:18;10.60;;;3.50;;
38248;SDS011;24045;51.138;17.126;2023-04-03T03:25:20;14.80;;;3.80;;
38248;SDS011;24045;51.138;17.126;2023-04-03T03:40:24;8.90;;;3.50;;
38248;SDS011;24045;51.138;17.126;2023-04-03T03:55:26;12.60;;;5.10;;
38248;SDS011;24045;51.138;17.126;2023-04-03T04:10:29;13.90;;;4.20;;
38248;SDS011;24045;51.138;17.126;2023-04-03T04:25:32;10.30;;;3.70;;
38248;SDS011;24045;51.138;17.126;2023-04-03T04:40:35;12.20;;;5.10;;
38248;SDS011;24045;51.138;17.126;2023-04-03T04:55:40;11.70;;;3.60;;
38248;SDS011;24045;51.138;17.126;2023-04-03T05:10:44;10.80;;;4.60;;
38248;SDS011;24045;51.138;17.126;2023-04-03T05:25:48;11.90;;;3.30;;
38248;SDS011;24045;51.138;17.126;2023-04-03T05:40:52;10.50;;;3.10;;
38248;SDS011;24045;51.138;17.126;2023-04-03T05:55:55;11.30;;;3.50;;
38248;SDS011;24045;51.138;17.126;2023-04-03T06:26:00;8.60;;;3.50;;
38248;SDS011;24045;51.138;17.126;2023-04-03T06:41:03;6.70;;;2.70;;
38248;SDS011;24045;51.138;17.126;2023-04-03T06:56:07;10.30;;;3.30;;
38248;SDS011;24045;51.138;17.126;2023-04-03T07:11:10;9.90;;;3.40;;
38248;SDS011;24045;51.138;17.126;2023-04-03T07:26:14;10.10;;;4.00;;
38248;SDS011;24045;51.138;17.126;2023-04-03T07:56:22;10.20;;;3.40;;
38248;SDS011;24045;51.138;17.126;2023-04-03T08:26:28;10.80;;;3.30;;
38248;SDS011;24045;51.138;17.126;2023-04-03T08:41:33;10.20;;;3.70;;
38248;SDS011;24045;51.138;17.126;2023-04-03T08:56:38;6.10;;;2.80;;
38248;SDS011;24045;51.138;17.126;2023-04-03T09:11:47;7.60;;;3.00;;
38248;SDS011;24045;51.138;17.126;2023-04-03T09:27:07;6.00;;;2.40;;
38248;SDS011;24045;51.138;17.126;2023-04-03T09:42:18;7.50;;;3.20;;
38248;SDS011;24045;51.138;17.126;2023-04-03T09:57:22;6.30;;;2.30;;
38248;SDS011;24045;51.138;17.126;2023-04-03T10:42:56;5.70;;;2.40;;
38248;SDS011;24045;51.138;17.126;2023-04-03T10:58:16;8.30;;;2.50;;
38248;SDS011;24045;51.138;17.126;2023-04-03T11:13:28;7.30;;;2.40;;
38248;SDS011;24045;51.138;17.126;2023-04-03T11:28:37;6.50;;;2.50;;
38248;SDS011;24045;51.138;17.126;2023-04-03T11:43:41;7.10;;;2.50;;
38248;SDS011;24045;51.138;17.126;2023-04-03T12:14:14;6.50;;;2.70;;
38248;SDS011;24045;51.138;17.126;2023-04-03T12:29:20;5.50;;;2.30;;
38248;SDS011;24045;51.138;17.126;2023-04-03T12:59:36;6.90;;;3.20;;
38248;SDS011;24045;51.138;17.126;2023-04-03T13:14:39;6.50;;;2.60;;
38248;SDS011;24045;51.138;17.126;2023-04-03T13:29:43;8.80;;;3.80;;
38248;SDS011;24045;51.138;17.126;2023-04-03T13:45:07;5.80;;;2.50;;
38248;SDS011;24045;51.138;17.126;2023-04-03T14:00:21;8.60;;;3.60;;
38248;SDS011;24045;51.138;17.126;2023-04-03T14:15:40;12.20;;;5.00;;
38248;SDS011;24045;51.138;17.126;2023-04-03T14:30:43;8.40;;;3.10;;
38248;SDS011;24045;51.138;17.126;2023-04-03T14:45:47;8.30;;;3.90;;
38248;SDS011;24045;51.138;17.126;2023-04-03T15:00:51;17.00;;;8.20;;
38248;SDS011;24045;51.138;17.126;2023-04-03T15:15:53;10.10;;;5.20;;
38248;SDS011;24045;51.138;17.126;2023-04-03T15:30:57;11.30;;;4.10;;
38248;SDS011;24045;51.138;17.126;2023-04-03T15:46:00;16.00;;;5.50;;
38248;SDS011;24045;51.138;17.126;2023-04-03T16:01:04;14.30;;;5.30;;
38248;SDS011;24045;51.138;17.126;2023-04-03T16:16:08;17.40;;;7.70;;
38248;SDS011;24045;51.138;17.126;2023-04-03T16:31:12;17.30;;;6.60;;
38248;SDS011;24045;51.138;17.126;2023-04-03T16:46:15;10.70;;;4.70;;
38248;SDS011;24045;51.138;17.126;2023-04-03T17:01:18;12.40;;;5.50;;
38248;SDS011;24045;51.138;17.126;2023-04-03T17:16:22;20.40;;;8.50;;
38248;SDS011;24045;51.138;17.126;2023-04-03T17:31:26;15.20;;;6.20;;
38248;SDS011;24045;51.138;17.126;2023-04-03T17:46:29;12.10;;;5.30;;
38248;SDS011;24045;51.138;17.126;2023-04-03T18:01:35;13.50;;;6.10;;
38248;SDS011;24045;51.138;17.126;2023-04-03T18:16:38;15.10;;;6.70;;
38248;SDS011;24045;51.138;17.126;2023-04-03T18:31:43;16.70;;;7.20;;
38248;SDS011;24045;51.138;17.126;2023-04-03T18:46:50;17.00;;;8.90;;
38248;SDS011;24045;51.138;17.126;2023-04-03T19:01:54;19.40;;;9.80;;
38248;SDS011;24045;51.138;17.126;2023-04-03T19:16:58;17.90;;;10.50;;
38248;SDS011;24045;51.138;17.126;2023-04-03T19:32:01;19.00;;;10.90;;
38248;SDS011;24045;51.138;17.126;2023-04-03T19:47:04;13.60;;;6.60;;
38248;SDS011;24045;51.138;17.126;2023-04-03T20:02:07;12.90;;;5.80;;
38248;SDS011;24045;51.138;17.126;2023-04-03T20:17:10;13.80;;;7.20;;
38248;SDS011;24045;51.138;17.126;2023-04-03T20:32:13;14.10;;;6.40;;
38248;SDS011;24045;51.138;17.126;2023-04-03T20:47:17;11.30;;;4.90;;
38248;SDS011;24045;51.138;17.126;2023-04-03T21:02:21;10.00;;;4.20;;
38248;SDS011;24045;51.138;17.126;2023-04-03T21:32:26;9.80;;;4.10;;
38248;SDS011;24045;51.138;17.126;2023-04-03T21:47:29;17.20;;;6.60;;
38248;SDS011;24045;51.138;17.126;2023-04-03T22:02:32;13.80;;;5.70;;
38248;SDS011;24045;51.138;17.126;2023-04-03T22:17:37;16.70;;;6.40;;
38248;SDS011;24045;51.138;17.126;2023-04-03T22:32:40;14.80;;;7.10;;
38248;SDS011;24045;51.138;17.126;2023-04-03T22:47:43;18.20;;;7.30;;
38248;SDS011;24045;51.138;17.126;2023-04-03T23:02:46;18.90;;;7.20;;
38248;SDS011;24045;51.138;17.126;2023-04-03T23:17:49;21.80;;;7.10;;
38248;SDS011;24045;51.138;17.126;2023-04-03T23:32:52;18.90;;;8.00;;
38248;SDS011;24045;51.138;17.126;2023-04-03T23:47:55;18.30;;;7.80;;
